Time;durP1;ratioP1;P1;durP2;ratioP2;P2;SDS_P1;SDS_P2;PMS_P1;PMS_P2;Temp;Humidity;BMP_temperature;BMP_pressure;BME280_temperature;BME280_humidity;BME280_pressure;Samples;Min_cycle;Max_cycle;Signal;HPM_P1;HPM_P2
2022/01/02 00:01:21;;;;;;;12.25;8.10;;;;;;;;;;5036087;28;20106;-54
2022/01/02 00:03:55;;;;;;;10.77;6.63;;;;;;;;;;5033275;28;20507;-52
2022/01/02 00:06:24;;;;;;;8.05;6.63;;;;;;;;;;5033188;28;20076;-52
2022/01/02 00:08:53;;;;;;;9.82;5.85;;;;;;;;;;5031890;28;20029;-54
2022/01/02 00:11:20;;;;;;;8.55;7.15;;;;;;;;;;5035433;28;20025;-55
2022/01/02 00:13:47;;;;;;;12.82;7.47;;;;;;;;;;5052726;28;20096;-55
2022/01/02 00:16:17;;;;;;;8.50;7.05;;;;;;;;;;5053302;28;20025;-54
2022/01/02 00:18:51;;;;;;;12.55;7.10;;;;;;;;;;5052268;28;20151;-53
2022/01/02 00:21:18;;;;;;;11.38;7.40;;;;;;;;;;5053247;28;20029;-55
2022/01/02 00:24:06;;;;;;;12.32;7.95;;;;;;;;;;5052857;28;20108;-54
2022/01/02 00:26:42;;;;;;;9.52;7.72;;;;;;;;;;5052938;28;20017;-54
2022/01/02 00:29:09;;;;;;;8.70;5.85;;;;;;;;;;5051830;28;20036;-56
2022/01/02 00:31:36;;;;;;;9.75;7.13;;;;;;;;;;5052454;28;20127;-55
2022/01/02 00:34:02;;;;;;;9.52;6.18;;;;;;;;;;5052491;28;20131;-49
2022/01/02 00:36:28;;;;;;;9.75;6.57;;;;;;;;;;5053148;28;20369;-53
2022/01/02 00:38:54;;;;;;;10.07;6.10;;;;;;;;;;5051894;28;20115;-54
2022/01/02 00:41:26;;;;;;;6.38;5.07;;;;;;;;;;5052649;28;20431;-56
2022/01/02 00:44:01;;;;;;;11.60;6.07;;;;;;;;;;5052090;28;20032;-51
2022/01/02 00:46:28;;;;;;;10.50;5.53;;;;;;;;;;5052291;28;20063;-55
2022/01/02 00:48:57;;;;;;;13.50;6.32;;;;;;;;;;5051733;28;20036;-53
2022/01/02 00:51:46;;;;;;;7.78;6.50;;;;;;;;;;5052466;28;20028;-54
2022/01/02 00:54:14;;;;;;;9.40;5.82;;;;;;;;;;5052257;28;20066;-55
2022/01/02 00:56:43;;;;;;;10.90;6.07;;;;;;;;;;5052173;28;20029;-52
2022/01/02 00:59:10;;;;;;;7.60;5.07;;;;;;;;;;5051635;28;20104;-54
2022/01/02 01:01:37;;;;;;;7.00;4.80;;;;;;;;;;5048225;28;20025;-53
2022/01/02 01:04:06;;;;;;;4.47;3.72;;;;;;;;;;5032306;28;20029;-54
2022/01/02 01:06:33;;;;;;;6.55;3.83;;;;;;;;;;5032287;28;20029;-56
2022/01/02 01:09:01;;;;;;;7.28;4.35;;;;;;;;;;5031456;28;20438;-55
2022/01/02 01:11:28;;;;;;;6.50;4.93;;;;;;;;;;5035313;28;20028;-55
2022/01/02 01:13:54;;;;;;;7.05;4.72;;;;;;;;;;5051771;28;20025;-53
2022/01/02 01:16:20;;;;;;;7.90;4.90;;;;;;;;;;5052146;28;20029;-53
2022/01/02 01:18:46;;;;;;;8.90;5.07;;;;;;;;;;5051352;28;20039;-54
2022/01/02 01:21:12;;;;;;;10.27;5.28;;;;;;;;;;5054597;28;20028;-54
2022/01/02 01:23:40;;;;;;;6.20;4.72;;;;;;;;;;5055871;28;20075;-55
2022/01/02 01:26:08;;;;;;;9.60;5.53;;;;;;;;;;5056480;28;20062;-54
2022/01/02 01:28:34;;;;;;;10.63;5.68;;;;;;;;;;5055240;28;20037;-55
2022/01/02 01:31:00;;;;;;;7.53;4.97;;;;;;;;;;5056041;28;20033;-56
2022/01/02 01:33:26;;;;;;;7.55;6.28;;;;;;;;;;5055778;28;20025;-55
2022/01/02 01:35:52;;;;;;;6.40;5.72;;;;;;;;;;5055890;28;20486;-51
2022/01/02 01:38:18;;;;;;;7.30;5.57;;;;;;;;;;5055142;28;20060;-54
2022/01/02 01:40:47;;;;;;;10.30;5.10;;;;;;;;;;5056310;28;20486;-56
2022/01/02 01:43:14;;;;;;;9.20;6.22;;;;;;;;;;5055808;28;20437;-54
2022/01/02 01:45:40;;;;;;;6.90;6.13;;;;;;;;;;5055725;28;20048;-54
2022/01/02 01:48:07;;;;;;;5.43;4.18;;;;;;;;;;5054944;28;20029;-54
2022/01/02 01:50:35;;;;;;;11.48;5.93;;;;;;;;;;5055849;28;20185;-56
2022/01/02 01:53:01;;;;;;;8.23;5.47;;;;;;;;;;5055214;28;20060;-55
2022/01/02 01:55:27;;;;;;;12.82;6.82;;;;;;;;;;5055621;28;20025;-55
2022/01/02 01:57:53;;;;;;;8.77;5.85;;;;;;;;;;5054914;28;20099;-53
2022/01/02 02:00:20;;;;;;;6.35;5.15;;;;;;;;;;5055327;28;20029;-54
2022/01/02 02:02:46;;;;;;;8.18;5.15;;;;;;;;;;5041599;28;20033;-51
2022/01/02 02:05:13;;;;;;;7.45;5.40;;;;;;;;;;5035316;28;20460;-52
2022/01/02 02:07:46;;;;;;;6.97;5.30;;;;;;;;;;5035277;28;20049;-52
2022/01/02 02:10:38;;;;;;;8.88;5.88;;;;;;;;;;5035464;28;20064;-54
2022/01/02 02:13:04;;;;;;;9.52;6.10;;;;;;;;;;5051775;28;20043;-53
2022/01/02 02:15:30;;;;;;;6.82;5.38;;;;;;;;;;5055161;28;20031;-54
2022/01/02 02:17:56;;;;;;;7.30;5.45;;;;;;;;;;5054420;28;20101;-55
2022/01/02 02:20:30;;;;;;;8.10;5.65;;;;;;;;;;5055366;28;20036;-53
2022/01/02 02:22:57;;;;;;;8.80;6.03;;;;;;;;;;5055326;28;20079;-52
2022/01/02 02:25:24;;;;;;;12.80;5.75;;;;;;;;;;5055027;28;20025;-51
2022/01/02 02:27:54;;;;;;;11.05;5.78;;;;;;;;;;5054296;28;20501;-54
2022/01/02 02:30:21;;;;;;;11.00;6.50;;;;;;;;;;5055197;28;20025;-50
2022/01/02 02:32:47;;;;;;;9.85;6.90;;;;;;;;;;5054575;28;20021;-53
2022/01/02 02:35:14;;;;;;;7.47;5.60;;;;;;;;;;5054838;28;20035;-55
2022/01/02 02:37:42;;;;;;;7.15;6.03;;;;;;;;;;5054900;28;20045;-54
2022/01/02 02:40:08;;;;;;;7.63;5.75;;;;;;;;;;5054435;28;20413;-52
2022/01/02 02:43:02;;;;;;;9.38;6.65;;;;;;;;;;5054528;28;20024;-56
2022/01/02 02:50:58;;;;;;;7.38;6.50;;;;;;;;;;5054502;28;20435;-53
2022/01/02 02:53:24;;;;;;;8.95;6.50;;;;;;;;;;5054135;28;20025;-54
2022/01/02 02:55:55;;;;;;;8.88;6.53;;;;;;;;;;5054750;28;20454;-54
2022/01/02 02:58:55;;;;;;;8.57;6.78;;;;;;;;;;5053841;28;20486;-52
2022/01/02 03:01:15;;;;;;;8.82;6.40;;;;;;;;;;5069662;28;20079;-51
2022/01/02 03:03:41;;;;;;;10.90;7.72;;;;;;;;;;5053998;28;20032;-51
2022/01/02 03:06:08;;;;;;;9.13;7.90;;;;;;;;;;5054134;28;20057;-50
2022/01/02 03:08:35;;;;;;;9.75;7.00;;;;;;;;;;5053642;28;20033;-54
2022/01/02 03:11:01;;;;;;;8.68;7.78;;;;;;;;;;5054206;28;20033;-49
2022/01/02 03:13:27;;;;;;;10.77;8.18;;;;;;;;;;5034188;28;20108;-55
2022/01/02 03:15:53;;;;;;;9.63;6.90;;;;;;;;;;5033851;28;20111;-55
2022/01/02 03:18:19;;;;;;;10.00;6.45;;;;;;;;;;5033405;28;20033;-53
2022/01/02 03:20:45;;;;;;;6.93;5.38;;;;;;;;;;5034186;28;20025;-51
2022/01/02 03:23:11;;;;;;;6.57;5.22;;;;;;;;;;5034098;28;20032;-53
2022/01/02 03:25:37;;;;;;;9.20;5.82;;;;;;;;;;5034001;28;20029;-52
2022/01/02 03:28:03;;;;;;;9.05;5.85;;;;;;;;;;5033384;28;20107;-55
2022/01/02 03:30:29;;;;;;;5.65;4.45;;;;;;;;;;5033870;28;20022;-53
2022/01/02 03:32:55;;;;;;;7.55;5.78;;;;;;;;;;5033465;28;20071;-55
2022/01/02 03:35:21;;;;;;;8.52;5.97;;;;;;;;;;5033885;28;20037;-54
2022/01/02 03:37:47;;;;;;;10.07;5.88;;;;;;;;;;5033253;28;20069;-55
2022/01/02 03:40:13;;;;;;;8.45;5.28;;;;;;;;;;5033717;28;20026;-53
2022/01/02 03:42:39;;;;;;;5.57;4.68;;;;;;;;;;5033443;28;20384;-52
2022/01/02 03:45:06;;;;;;;9.60;5.82;;;;;;;;;;5033440;28;20455;-51
2022/01/02 03:47:32;;;;;;;7.72;5.85;;;;;;;;;;5033270;28;20443;-52
2022/01/02 03:49:58;;;;;;;9.32;6.35;;;;;;;;;;5032917;28;20033;-55
2022/01/02 03:52:24;;;;;;;7.50;4.65;;;;;;;;;;5033487;28;20079;-53
2022/01/02 03:54:51;;;;;;;6.70;5.47;;;;;;;;;;5033295;28;20411;-54
2022/01/02 03:57:17;;;;;;;7.25;4.97;;;;;;;;;;5033362;28;20075;-54
2022/01/02 03:59:43;;;;;;;5.97;4.45;;;;;;;;;;5033014;28;20029;-51
2022/01/02 04:02:09;;;;;;;5.75;4.43;;;;;;;;;;5036014;28;20095;-56
2022/01/02 04:04:35;;;;;;;8.93;5.25;;;;;;;;;;5033327;28;20463;-53
2022/01/02 04:07:01;;;;;;;6.85;4.65;;;;;;;;;;5033296;28;20027;-55
2022/01/02 04:09:27;;;;;;;5.45;4.45;;;;;;;;;;5032360;28;20033;-53
2022/01/02 04:11:53;;;;;;;5.97;4.95;;;;;;;;;;5039923;28;20098;-53
2022/01/02 04:14:19;;;;;;;8.82;6.05;;;;;;;;;;5052877;28;20032;-52
2022/01/02 04:16:45;;;;;;;8.48;5.35;;;;;;;;;;5052800;28;20025;-55
2022/01/02 04:19:11;;;;;;;5.72;4.70;;;;;;;;;;5051011;28;20381;-50
2022/01/02 04:21:37;;;;;;;6.32;5.05;;;;;;;;;;5053146;28;20021;-55
2022/01/02 04:24:03;;;;;;;7.72;5.82;;;;;;;;;;5052846;28;20437;-54
2022/01/02 04:26:29;;;;;;;5.63;4.65;;;;;;;;;;5052756;28;20050;-52
2022/01/02 04:28:55;;;;;;;9.15;5.32;;;;;;;;;;5051977;28;20482;-53
2022/01/02 04:31:21;;;;;;;8.13;5.65;;;;;;;;;;5047903;28;20067;-54
2022/01/02 04:33:47;;;;;;;8.68;5.30;;;;;;;;;;5052266;28;20032;-55
2022/01/02 04:36:13;;;;;;;7.47;6.22;;;;;;;;;;5052692;28;20434;-55
2022/01/02 04:38:40;;;;;;;6.97;5.07;;;;;;;;;;5051841;28;20051;-53
2022/01/02 04:41:06;;;;;;;5.68;4.20;;;;;;;;;;5052335;28;20035;-51
2022/01/02 04:43:32;;;;;;;5.97;3.78;;;;;;;;;;5051982;28;20458;-52
2022/01/02 04:45:58;;;;;;;6.60;4.30;;;;;;;;;;5051759;28;20071;-53
2022/01/02 04:48:24;;;;;;;6.60;4.50;;;;;;;;;;5051834;28;20040;-50
2022/01/02 04:50:50;;;;;;;6.13;4.00;;;;;;;;;;5049639;28;20083;-51
2022/01/02 04:53:16;;;;;;;5.55;4.07;;;;;;;;;;5051919;28;20057;-52
2022/01/02 04:55:42;;;;;;;8.32;4.97;;;;;;;;;;5051170;28;20112;-53
2022/01/02 04:58:08;;;;;;;7.18;4.50;;;;;;;;;;5051543;28;20033;-55
2022/01/02 05:00:34;;;;;;;7.63;5.22;;;;;;;;;;5050329;28;20033;-54
2022/01/02 05:03:00;;;;;;;6.30;5.18;;;;;;;;;;5051741;28;20056;-56
2022/01/02 05:05:26;;;;;;;6.47;4.63;;;;;;;;;;5052105;28;20029;-53
2022/01/02 05:07:52;;;;;;;5.90;4.90;;;;;;;;;;5051275;28;20036;-53
2022/01/02 05:10:18;;;;;;;9.55;6.60;;;;;;;;;;5052093;28;20037;-55
2022/01/02 05:12:44;;;;;;;6.75;5.95;;;;;;;;;;5051723;28;20124;-55
2022/01/02 05:15:10;;;;;;;10.38;6.05;;;;;;;;;;5048980;28;20433;-54
2022/01/02 05:17:36;;;;;;;9.13;5.38;;;;;;;;;;5052212;28;20017;-56
2022/01/02 05:20:03;;;;;;;8.35;5.35;;;;;;;;;;5051063;28;20498;-53
2022/01/02 05:22:29;;;;;;;6.55;5.32;;;;;;;;;;5051859;28;20426;-54
2022/01/02 05:24:55;;;;;;;8.05;5.35;;;;;;;;;;5051881;28;20025;-54
2022/01/02 05:27:21;;;;;;;6.43;4.93;;;;;;;;;;5051893;28;20375;-49
2022/01/02 05:29:47;;;;;;;9.43;5.97;;;;;;;;;;5050882;28;20419;-53
2022/01/02 05:32:13;;;;;;;6.68;5.70;;;;;;;;;;5051841;28;20528;-55
2022/01/02 05:34:38;;;;;;;6.38;5.28;;;;;;;;;;5051868;28;20083;-53
2022/01/02 05:37:04;;;;;;;8.10;6.13;;;;;;;;;;5052071;28;20041;-55
2022/01/02 05:39:30;;;;;;;7.15;5.22;;;;;;;;;;5051051;28;20029;-51
2022/01/02 05:41:56;;;;;;;8.63;5.68;;;;;;;;;;5051371;28;20340;-54
2022/01/02 05:44:22;;;;;;;8.95;6.47;;;;;;;;;;5052020;28;20210;-53
2022/01/02 05:46:48;;;;;;;7.68;6.05;;;;;;;;;;5051834;28;20025;-55
2022/01/02 05:49:15;;;;;;;8.80;6.20;;;;;;;;;;5051040;28;20490;-55
2022/01/02 05:51:41;;;;;;;6.32;5.47;;;;;;;;;;5051224;28;20029;-52
2022/01/02 05:54:07;;;;;;;9.13;5.95;;;;;;;;;;5051578;28;20031;-55
2022/01/02 05:56:33;;;;;;;7.88;5.05;;;;;;;;;;5051405;28;20026;-52
2022/01/02 05:58:59;;;;;;;8.45;6.93;;;;;;;;;;5051171;28;20029;-54
2022/01/02 06:01:25;;;;;;;5.35;4.05;;;;;;;;;;5051351;28;20086;-53
2022/01/02 06:03:52;;;;;;;7.00;5.32;;;;;;;;;;5051450;28;20025;-55
2022/01/02 06:06:18;;;;;;;8.07;5.57;;;;;;;;;;5052216;28;20083;-54
2022/01/02 06:08:44;;;;;;;6.95;5.80;;;;;;;;;;5054591;28;20087;-51
2022/01/02 06:11:10;;;;;;;8.95;6.15;;;;;;;;;;5054802;28;20025;-52
2022/01/02 06:13:36;;;;;;;9.18;5.38;;;;;;;;;;5055160;28;20025;-54
2022/01/02 06:16:02;;;;;;;7.22;5.50;;;;;;;;;;5055187;28;20394;-53
2022/01/02 06:18:28;;;;;;;9.55;6.45;;;;;;;;;;5054556;28;20052;-56
2022/01/02 06:20:54;;;;;;;7.55;5.93;;;;;;;;;;5054677;28;20033;-52
2022/01/02 06:23:20;;;;;;;10.13;5.55;;;;;;;;;;5054858;28;20039;-48
2022/01/02 06:25:46;;;;;;;6.47;5.80;;;;;;;;;;5054869;28;20036;-52
2022/01/02 06:28:12;;;;;;;8.52;5.47;;;;;;;;;;5054423;28;20040;-49
2022/01/02 06:30:39;;;;;;;8.13;5.65;;;;;;;;;;5054960;28;20112;-51
2022/01/02 06:33:04;;;;;;;6.03;5.10;;;;;;;;;;5055059;28;20033;-50
2022/01/02 06:35:32;;;;;;;6.72;5.22;;;;;;;;;;5054686;28;20033;-53
2022/01/02 06:37:58;;;;;;;6.45;4.75;;;;;;;;;;5053886;28;20489;-53
2022/01/02 06:40:25;;;;;;;8.07;5.50;;;;;;;;;;5054094;28;20121;-50
2022/01/02 06:42:51;;;;;;;6.47;5.10;;;;;;;;;;5054479;28;20068;-52
2022/01/02 06:45:17;;;;;;;7.55;5.53;;;;;;;;;;5054812;28;20025;-54
2022/01/02 06:47:43;;;;;;;9.57;4.75;;;;;;;;;;5054469;28;20099;-54
2022/01/02 06:50:11;;;;;;;9.75;4.72;;;;;;;;;;5053803;28;20116;-54
2022/01/02 06:52:37;;;;;;;4.85;3.85;;;;;;;;;;5054267;28;20057;-54
2022/01/02 06:55:03;;;;;;;5.18;4.00;;;;;;;;;;5054085;28;20049;-54
2022/01/02 06:57:29;;;;;;;6.22;4.13;;;;;;;;;;5054529;28;20111;-54
2022/01/02 06:59:55;;;;;;;6.25;5.10;;;;;;;;;;5053562;28;20112;-52
2022/01/02 07:02:21;;;;;;;6.95;4.03;;;;;;;;;;5054099;28;20094;-52
2022/01/02 07:04:47;;;;;;;6.43;4.13;;;;;;;;;;5054232;28;20072;-54
2022/01/02 07:07:13;;;;;;;5.82;3.90;;;;;;;;;;5054105;28;20177;-53
2022/01/02 07:09:39;;;;;;;5.35;3.22;;;;;;;;;;5053245;28;20116;-53
2022/01/02 07:12:05;;;;;;;4.32;3.15;;;;;;;;;;5053745;28;20104;-52
2022/01/02 07:14:31;;;;;;;5.35;3.10;;;;;;;;;;5054119;28;20025;-56
2022/01/02 07:16:58;;;;;;;5.60;3.53;;;;;;;;;;5054144;28;20029;-53
2022/01/02 07:19:24;;;;;;;8.05;3.72;;;;;;;;;;5052456;28;20032;-55
2022/01/02 07:21:50;;;;;;;6.70;3.50;;;;;;;;;;5053468;28;20086;-55
2022/01/02 07:24:16;;;;;;;5.97;3.50;;;;;;;;;;5053694;28;20025;-54
2022/01/02 07:26:42;;;;;;;3.88;3.00;;;;;;;;;;5054030;28;20021;-51
2022/01/02 07:29:08;;;;;;;4.70;3.35;;;;;;;;;;5053269;28;20043;-53
2022/01/02 07:31:34;;;;;;;4.05;3.13;;;;;;;;;;5053632;28;20037;-53
2022/01/02 07:34:00;;;;;;;5.90;3.60;;;;;;;;;;5053799;28;20411;-52
2022/01/02 07:36:26;;;;;;;7.25;3.67;;;;;;;;;;5053585;28;20127;-54
2022/01/02 07:38:52;;;;;;;4.95;3.67;;;;;;;;;;5051784;28;20056;-54
2022/01/02 07:41:18;;;;;;;5.75;3.78;;;;;;;;;;5053340;28;20114;-53
2022/01/02 07:43:44;;;;;;;5.70;3.47;;;;;;;;;;5053410;28;20032;-53
2022/01/02 07:46:11;;;;;;;4.55;3.35;;;;;;;;;;5053623;28;20074;-54
2022/01/02 07:48:37;;;;;;;4.45;3.30;;;;;;;;;;5052500;28;20033;-55
2022/01/02 07:51:04;;;;;;;5.78;4.07;;;;;;;;;;5053391;28;20432;-53
2022/01/02 07:53:30;;;;;;;5.15;3.13;;;;;;;;;;5052857;28;20033;-56
2022/01/02 07:55:56;;;;;;;9.10;4.25;;;;;;;;;;5053389;28;20272;-56
2022/01/02 07:58:22;;;;;;;5.68;4.53;;;;;;;;;;5052333;28;20067;-55
2022/01/02 08:00:50;;;;;;;5.00;3.38;;;;;;;;;;5053204;28;20032;-54
2022/01/02 08:03:16;;;;;;;7.30;4.43;;;;;;;;;;5052891;28;20039;-51
2022/01/02 08:05:41;;;;;;;4.47;3.35;;;;;;;;;;5053151;28;20473;-56
2022/01/02 08:08:07;;;;;;;7.03;3.85;;;;;;;;;;5051794;28;20324;-54
2022/01/02 08:10:33;;;;;;;6.43;4.22;;;;;;;;;;5051310;28;20433;-51
2022/01/02 08:12:59;;;;;;;6.65;4.18;;;;;;;;;;5052696;28;20041;-52
2022/01/02 08:15:25;;;;;;;5.60;3.92;;;;;;;;;;5050934;28;20029;-53
2022/01/02 08:17:51;;;;;;;6.72;4.40;;;;;;;;;;5052127;28;20059;-50
2022/01/02 08:20:17;;;;;;;7.45;3.92;;;;;;;;;;5052762;28;20032;-56
2022/01/02 08:22:43;;;;;;;5.18;4.20;;;;;;;;;;5051661;28;20413;-52
2022/01/02 08:25:09;;;;;;;6.05;4.63;;;;;;;;;;5052985;28;20025;-52
2022/01/02 08:27:35;;;;;;;11.38;5.03;;;;;;;;;;5052683;28;20025;-54
2022/01/02 08:30:01;;;;;;;8.40;5.55;;;;;;;;;;5051975;28;20493;-52
2022/01/02 08:32:27;;;;;;;7.18;4.30;;;;;;;;;;5051855;28;20104;-53
2022/01/02 08:34:53;;;;;;;6.97;4.90;;;;;;;;;;5052532;28;20033;-51
2022/01/02 08:37:19;;;;;;;7.28;5.35;;;;;;;;;;5052537;28;20137;-49
2022/01/02 08:39:45;;;;;;;8.32;5.30;;;;;;;;;;5052014;28;20035;-50
2022/01/02 08:42:13;;;;;;;6.43;4.68;;;;;;;;;;5052074;28;20033;-55
2022/01/02 08:44:39;;;;;;;5.40;3.88;;;;;;;;;;5052003;28;20033;-54
2022/01/02 08:47:06;;;;;;;4.97;4.30;;;;;;;;;;5052360;28;20025;-54
2022/01/02 08:49:31;;;;;;;7.35;4.88;;;;;;;;;;5051617;28;20032;-52
2022/01/02 08:51:57;;;;;;;8.52;4.45;;;;;;;;;;5052173;28;20036;-53
2022/01/02 08:54:23;;;;;;;4.93;3.53;;;;;;;;;;5051910;28;20035;-51
2022/01/02 08:56:49;;;;;;;5.82;3.85;;;;;;;;;;5052354;28;20387;-51
2022/01/02 08:59:15;;;;;;;5.80;4.57;;;;;;;;;;5051313;28;20182;-53
2022/01/02 09:01:41;;;;;;;7.00;3.60;;;;;;;;;;5047881;28;20506;-56
2022/01/02 09:04:07;;;;;;;5.90;3.78;;;;;;;;;;5051767;28;20029;-56
2022/01/02 09:06:33;;;;;;;7.45;4.28;;;;;;;;;;5052016;28;20033;-56
2022/01/02 09:08:59;;;;;;;10.30;3.22;;;;;;;;;;5050261;28;20557;-54
2022/01/02 09:11:25;;;;;;;4.43;2.92;;;;;;;;;;5040220;28;20025;-52
2022/01/02 09:13:51;;;;;;;4.88;3.35;;;;;;;;;;5042526;28;20052;-56
2022/01/02 09:16:17;;;;;;;3.67;2.83;;;;;;;;;;5052073;28;20036;-55
2022/01/02 09:18:43;;;;;;;4.75;3.10;;;;;;;;;;5050999;28;20031;-56
2022/01/02 09:21:09;;;;;;;3.42;2.10;;;;;;;;;;5052094;28;20087;-55
2022/01/02 09:23:36;;;;;;;2.75;1.77;;;;;;;;;;5039160;28;20080;-54
2022/01/02 09:26:02;;;;;;;3.25;1.83;;;;;;;;;;5042828;28;20025;-55
2022/01/02 09:28:28;;;;;;;4.22;2.47;;;;;;;;;;5051155;28;20115;-54
2022/01/02 09:30:54;;;;;;;3.03;2.30;;;;;;;;;;5052046;28;20032;-53
2022/01/02 09:33:20;;;;;;;3.30;1.98;;;;;;;;;;5051256;28;20483;-55
2022/01/02 09:35:46;;;;;;;6.10;3.08;;;;;;;;;;5052070;28;20041;-52
2022/01/02 09:38:12;;;;;;;5.57;2.55;;;;;;;;;;5051086;28;20036;-54
2022/01/02 09:40:40;;;;;;;13.60;5.00;;;;;;;;;;5039227;28;20022;-53
2022/01/02 09:43:06;;;;;;;6.90;4.47;;;;;;;;;;5035485;28;20064;-56
2022/01/02 09:45:33;;;;;;;7.05;3.67;;;;;;;;;;5037416;28;20095;-54
2022/01/02 09:48:00;;;;;;;8.82;4.13;;;;;;;;;;5054466;28;20033;-55
2022/01/02 09:50:26;;;;;;;5.47;4.20;;;;;;;;;;5053603;28;20025;-54
2022/01/02 09:52:52;;;;;;;7.38;4.13;;;;;;;;;;5043530;28;20033;-55
2022/01/02 09:55:18;;;;;;;7.28;4.10;;;;;;;;;;5035182;28;20036;-54
2022/01/02 09:57:45;;;;;;;5.28;3.72;;;;;;;;;;5035581;28;20037;-53
2022/01/02 10:00:12;;;;;;;5.88;3.55;;;;;;;;;;5041248;28;20433;-53
2022/01/02 10:02:54;;;;;;;8.60;3.78;;;;;;;;;;5042343;28;20364;-54
2022/01/02 10:05:21;;;;;;;4.65;3.25;;;;;;;;;;5035209;28;20065;-53
2022/01/02 10:07:47;;;;;;;5.47;3.50;;;;;;;;;;5034519;28;20048;-55
2022/01/02 10:10:14;;;;;;;8.40;4.63;;;;;;;;;;5041064;28;20055;-54
2022/01/02 10:12:40;;;;;;;6.32;4.25;;;;;;;;;;5054984;28;20025;-56
2022/01/02 10:15:23;;;;;;;6.45;4.53;;;;;;;;;;5054661;28;20048;-57
2022/01/02 10:17:52;;;;;;;9.07;4.90;;;;;;;;;;5054679;28;20108;-56
2022/01/02 10:20:19;;;;;;;5.70;4.10;;;;;;;;;;5054902;28;20044;-56
2022/01/02 10:23:04;;;;;;;5.22;4.22;;;;;;;;;;5054949;28;20029;-54
2022/01/02 10:25:37;;;;;;;6.38;4.28;;;;;;;;;;5054646;28;20053;-55
2022/01/02 10:28:17;;;;;;;4.45;3.78;;;;;;;;;;5054472;28;20033;-50
2022/01/02 10:30:43;;;;;;;;;;;;;;;;;;5055078;28;20033;-54
2022/01/02 10:33:09;;;;;;;6.97;4.20;;;;;;;;;;5054769;28;19911;-54
2022/01/02 10:35:36;;;;;;;6.70;4.43;;;;;;;;;;5054680;28;20033;-56
2022/01/02 10:38:04;;;;;;;7.38;5.22;;;;;;;;;;5053924;28;20420;-55
2022/01/02 10:40:38;;;;;;;6.05;4.70;;;;;;;;;;5051480;28;20025;-54
2022/01/02 10:43:08;;;;;;;7.00;5.13;;;;;;;;;;5054370;28;20031;-56
2022/01/02 10:45:37;;;;;;;7.40;5.33;;;;;;;;;;5054136;28;20032;-55
2022/01/02 10:48:06;;;;;;;6.80;4.95;;;;;;;;;;5051950;28;20055;-54
2022/01/02 10:50:32;;;;;;;9.02;5.95;;;;;;;;;;5053657;28;20065;-56
2022/01/02 10:52:58;;;;;;;5.70;4.72;;;;;;;;;;5052787;28;20033;-56
2022/01/02 10:55:25;;;;;;;8.55;6.47;;;;;;;;;;5050662;28;20199;-57
2022/01/02 10:57:52;;;;;;;6.82;5.53;;;;;;;;;;5052932;28;20025;-55
2022/01/02 11:00:20;;;;;;;8.15;6.05;;;;;;;;;;5053639;28;20061;-52
2022/01/02 11:02:46;;;;;;;7.03;5.30;;;;;;;;;;5050385;28;20561;-54
2022/01/02 11:05:13;;;;;;;6.00;5.38;;;;;;;;;;5044625;28;20064;-56
2022/01/02 11:07:39;;;;;;;7.65;4.95;;;;;;;;;;5053458;28;20466;-53
2022/01/02 11:10:05;;;;;;;6.43;5.22;;;;;;;;;;5052605;28;20124;-56
2022/01/02 11:12:32;;;;;;;5.20;4.43;;;;;;;;;;5052879;28;20424;-56
2022/01/02 11:14:58;;;;;;;7.10;5.07;;;;;;;;;;5051570;28;20029;-54
2022/01/02 11:17:25;;;;;;;6.03;4.47;;;;;;;;;;5053199;28;20478;-56
2022/01/02 11:19:51;;;;;;;4.97;3.90;;;;;;;;;;5052481;28;20444;-56
2022/01/02 11:22:29;;;;;;;6.40;4.90;;;;;;;;;;5052924;28;20087;-52
2022/01/02 11:24:59;;;;;;;7.40;5.38;;;;;;;;;;5052989;28;20390;-53
2022/01/02 11:27:33;;;;;;;6.72;4.82;;;;;;;;;;5052778;28;20029;-56
2022/01/02 11:30:19;;;;;;;7.88;5.07;;;;;;;;;;5052520;28;20037;-53
2022/01/02 11:32:59;;;;;;;5.90;4.65;;;;;;;;;;5039027;28;20032;-55
2022/01/02 11:35:31;;;;;;;6.70;4.80;;;;;;;;;;5052860;28;20478;-55
2022/01/02 11:38:01;;;;;;;6.13;4.50;;;;;;;;;;5051081;28;20267;-54
2022/01/02 11:40:42;;;;;;;5.80;4.60;;;;;;;;;;5052287;28;20090;-55
2022/01/02 11:43:08;;;;;;;;;;;;;;;;;;5053409;28;20102;-54
2022/01/02 11:45:41;;;;;;;6.65;3.10;;;;;;;;;;5053011;28;19912;-56
2022/01/02 11:48:27;;;;;;;4.30;2.45;;;;;;;;;;5048732;28;20057;-52
2022/01/02 11:50:53;;;;;;;5.05;2.83;;;;;;;;;;5052435;28;20037;-53
2022/01/02 11:53:29;;;;;;;3.92;2.10;;;;;;;;;;5052297;28;20033;-56
2022/01/02 11:55:55;;;;;;;3.90;2.60;;;;;;;;;;5048433;28;20017;-54
2022/01/02 11:58:40;;;;;;;4.88;2.45;;;;;;;;;;5050681;28;20032;-56
2022/01/02 12:01:07;;;;;;;2.72;2.00;;;;;;;;;;5052545;28;20020;-55
2022/01/02 12:03:44;;;;;;;3.05;2.03;;;;;;;;;;5051029;28;20397;-56
2022/01/02 12:06:13;;;;;;;3.05;2.05;;;;;;;;;;5051149;28;20029;-55
2022/01/02 12:08:39;;;;;;;4.07;2.10;;;;;;;;;;5051932;28;20097;-54
2022/01/02 12:11:44;;;;;;;3.42;1.70;;;;;;;;;;5052191;28;20021;-54
2022/01/02 12:14:11;;;;;;;2.67;1.50;;;;;;;;;;5037989;28;20388;-54
2022/01/02 12:16:39;;;;;;;2.53;1.40;;;;;;;;;;5049667;28;20029;-55
2022/01/02 12:19:05;;;;;;;2.22;1.38;;;;;;;;;;5040401;28;20049;-56
2022/01/02 12:21:32;;;;;;;2.13;1.10;;;;;;;;;;5043976;28;20442;-56
2022/01/02 12:23:58;;;;;;;2.08;1.23;;;;;;;;;;5051811;28;20035;-54
2022/01/02 12:26:35;;;;;;;1.92;1.25;;;;;;;;;;5051918;28;20391;-53
2022/01/02 12:29:06;;;;;;;4.55;1.50;;;;;;;;;;5047018;28;20483;-54
2022/01/02 12:31:39;;;;;;;1.50;0.70;;;;;;;;;;5051250;28;20060;-55
2022/01/02 12:34:10;;;;;;;0.88;0.35;;;;;;;;;;5051236;28;20112;-55
2022/01/02 12:36:36;;;;;;;;;;;;;;;;;;5050481;28;20029;-55
2022/01/02 12:39:06;;;;;;;1.83;1.00;;;;;;;;;;5049025;28;20360;-57
2022/01/02 12:41:34;;;;;;;1.63;0.85;;;;;;;;;;5049613;28;20033;-53
2022/01/02 12:44:02;;;;;;;1.95;0.85;;;;;;;;;;5048109;28;20052;-54
2022/01/02 12:46:31;;;;;;;2.08;0.93;;;;;;;;;;5050420;28;20890;-53
2022/01/02 12:48:57;;;;;;;1.98;0.98;;;;;;;;;;5050023;28;20566;-54
2022/01/02 12:51:28;;;;;;;1.77;0.70;;;;;;;;;;5050902;28;20107;-56
2022/01/02 12:53:54;;;;;;;;;;;;;;;;;;5052111;28;20033;-57
2022/01/02 12:56:30;;;;;;;3.28;1.05;;;;;;;;;;5051867;28;19904;-54
2022/01/02 12:59:11;;;;;;;1.65;0.85;;;;;;;;;;5051296;28;20032;-56
2022/01/02 13:01:47;;;;;;;2.10;1.02;;;;;;;;;;5051310;28;20104;-57
2022/01/02 13:04:13;;;;;;;2.90;1.17;;;;;;;;;;5052097;28;20094;-56
2022/01/02 13:06:39;;;;;;;1.90;0.95;;;;;;;;;;5050627;28;20032;-55
2022/01/02 13:09:05;;;;;;;2.80;1.23;;;;;;;;;;5048663;28;20048;-57
2022/01/02 13:11:37;;;;;;;3.83;1.00;;;;;;;;;;5050324;28;20494;-56
2022/01/02 13:14:03;;;;;;;2.35;1.20;;;;;;;;;;5032207;28;20188;-56
2022/01/02 13:16:29;;;;;;;1.77;0.88;;;;;;;;;;5046120;28;20526;-56
2022/01/02 13:18:56;;;;;;;2.83;1.65;;;;;;;;;;5051324;28;20376;-56
2022/01/02 13:21:22;;;;;;;2.53;1.27;;;;;;;;;;5044907;28;20032;-55
2022/01/02 13:23:48;;;;;;;2.35;1.30;;;;;;;;;;5051890;28;20382;-56
2022/01/02 13:26:21;;;;;;;1.38;0.70;;;;;;;;;;5051852;28;20060;-57
2022/01/02 13:28:47;;;;;;;1.85;1.00;;;;;;;;;;5048434;28;20118;-56
2022/01/02 13:31:13;;;;;;;1.55;0.88;;;;;;;;;;5045145;28;20140;-55
2022/01/02 13:33:43;;;;;;;2.13;1.42;;;;;;;;;;5033581;28;20129;-55
2022/01/02 13:36:13;;;;;;;2.38;1.10;;;;;;;;;;5050850;28;20069;-57
2022/01/02 13:38:49;;;;;;;3.95;1.33;;;;;;;;;;5048289;28;20112;-54
2022/01/02 13:41:14;;;;;;;1.33;0.73;;;;;;;;;;5051638;28;20040;-55
2022/01/02 13:43:40;;;;;;;4.30;1.17;;;;;;;;;;5051769;28;20032;-56
2022/01/02 13:46:06;;;;;;;4.30;1.42;;;;;;;;;;5048292;28;20112;-54
2022/01/02 13:48:32;;;;;;;1.80;1.05;;;;;;;;;;5050857;28;20036;-57
2022/01/02 13:50:59;;;;;;;1.88;0.88;;;;;;;;;;5051622;28;20033;-56
2022/01/02 13:53:25;;;;;;;2.67;1.15;;;;;;;;;;5051336;28;20087;-56
2022/01/02 13:55:53;;;;;;;3.33;1.20;;;;;;;;;;5050626;28;20070;-57
2022/01/02 13:58:23;;;;;;;2.67;1.63;;;;;;;;;;5050700;28;20415;-56
2022/01/02 14:00:51;;;;;;;6.07;1.95;;;;;;;;;;5050918;28;20498;-53
2022/01/02 14:03:29;;;;;;;2.50;0.77;;;;;;;;;;5049923;28;20053;-53
2022/01/02 14:05:56;;;;;;;2.75;1.48;;;;;;;;;;5042865;28;20032;-55
2022/01/02 14:08:22;;;;;;;2.40;1.15;;;;;;;;;;5043666;28;20036;-53
2022/01/02 14:11:02;;;;;;;2.92;1.65;;;;;;;;;;5050108;28;20033;-55
2022/01/02 14:13:28;;;;;;;1.70;0.88;;;;;;;;;;5049052;28;20033;-53
2022/01/02 14:16:01;;;;;;;2.28;1.00;;;;;;;;;;5051220;28;20037;-53
2022/01/02 14:18:28;;;;;;;3.05;1.60;;;;;;;;;;5048984;28;20037;-55
2022/01/02 14:21:00;;;;;;;2.55;1.40;;;;;;;;;;5051467;28;20025;-57
2022/01/02 14:23:27;;;;;;;3.40;1.00;;;;;;;;;;5041375;28;20147;-55
2022/01/02 14:25:53;;;;;;;2.17;0.98;;;;;;;;;;5031215;28;20029;-58
2022/01/02 14:28:19;;;;;;;2.20;1.20;;;;;;;;;;5032673;28;20463;-56
2022/01/02 14:30:45;;;;;;;2.88;1.33;;;;;;;;;;5034502;28;20022;-54
2022/01/02 14:33:11;;;;;;;2.63;1.50;;;;;;;;;;5042467;28;20075;-56
2022/01/02 14:35:37;;;;;;;4.22;1.33;;;;;;;;;;5052716;28;20036;-56
2022/01/02 14:38:03;;;;;;;4.95;1.10;;;;;;;;;;5050348;28;20029;-56
2022/01/02 14:40:29;;;;;;;1.95;0.90;;;;;;;;;;5036590;28;20026;-55
2022/01/02 14:42:55;;;;;;;3.90;1.48;;;;;;;;;;5052164;28;20067;-54
2022/01/02 14:45:23;;;;;;;3.47;1.42;;;;;;;;;;5039549;28;20037;-56
2022/01/02 14:47:49;;;;;;;2.00;1.17;;;;;;;;;;5034465;28;20030;-54
2022/01/02 14:50:15;;;;;;;2.40;1.08;;;;;;;;;;5054272;28;20051;-56
2022/01/02 14:52:42;;;;;;;2.45;1.20;;;;;;;;;;5054013;28;20067;-51